Terminal Aerodrome Forecast
Issued by NWS Huntsville, AL

Home | Current Version | Previous Version | Text Only | Print | Product List | Glossary On
Versions: 1 2 3 4 5 6 7 8 9 10 11 12 13 14 15 16 17 18 19 20 21 22 23 24 25 26 27 28 29 30 31 32 33
373
FTUS44 KHUN 262345
TAFMSL
TAF
KMSL 262345Z 2700/2724 17013G21KT P6SM SCT250
     FM270400 17013G21KT P6SM VCTS BKN040CB BKN180 OVC250
      TEMPO 2705/2707 3SM TSRA BR BKN025CB OVC035
     FM270700 25008G16KT 5SM -RA BR BKN005 OVC015
     FM271100 27005KT P6SM BKN005 OVC015
     FM271400 27005KT P6SM BKN015 OVC025
     FM271700 VRB03KT P6SM SCT025 SCT200=

USA.gov is the U.S. government's official web portal to all federal, state and local government web resources and services.